sensor_id;sensor_type;location;lat;lon;timestamp;pressure;altitude;pressure_sealevel;temperature;humidity
29815;BME280;16708;50.426;7.664;2023-06-24T00:02:27;996.11;;;14.98;100.00
29815;BME280;16708;50.426;7.664;2023-06-24T00:07:21;996.11;;;14.93;100.00
29815;BME280;16708;50.426;7.664;2023-06-24T00:12:16;996.07;;;14.86;100.00
29815;BME280;16708;50.426;7.664;2023-06-24T00:17:10;996.01;;;14.79;100.00
29815;BME280;16708;50.426;7.664;2023-06-24T00:22:05;996.10;;;14.78;100.00
29815;BME280;16708;50.426;7.664;2023-06-24T00:26:58;996.16;;;14.77;100.00
29815;BME280;16708;50.426;7.664;2023-06-24T00:31:52;996.14;;;14.71;100.00
29815;BME280;16708;50.426;7.664;2023-06-24T00:36:47;996.04;;;14.68;100.00
29815;BME280;16708;50.426;7.664;2023-06-24T00:41:40;996.04;;;14.54;100.00
29815;BME280;16708;50.426;7.664;2023-06-24T00:46:34;996.08;;;14.49;100.00
29815;BME280;16708;50.426;7.664;2023-06-24T00:51:28;996.08;;;14.44;100.00
29815;BME280;16708;50.426;7.664;2023-06-24T00:56:23;996.07;;;14.41;100.00
29815;BME280;16708;50.426;7.664;2023-06-24T01:01:17;996.10;;;14.38;100.00
29815;BME280;16708;50.426;7.664;2023-06-24T01:06:11;996.05;;;14.34;100.00
29815;BME280;16708;50.426;7.664;2023-06-24T01:11:06;996.07;;;14.29;100.00
29815;BME280;16708;50.426;7.664;2023-06-24T01:16:00;996.18;;;14.26;100.00
29815;BME280;16708;50.426;7.664;2023-06-24T01:20:55;996.13;;;14.20;100.00
29815;BME280;16708;50.426;7.664;2023-06-24T01:30:42;996.20;;;14.16;100.00
29815;BME280;16708;50.426;7.664;2023-06-24T01:35:36;996.19;;;14.14;100.00
29815;BME280;16708;50.426;7.664;2023-06-24T01:40:31;996.20;;;14.13;100.00
29815;BME280;16708;50.426;7.664;2023-06-24T01:45:25;996.26;;;14.01;100.00
29815;BME280;16708;50.426;7.664;2023-06-24T01:50:20;996.20;;;13.97;100.00
29815;BME280;16708;50.426;7.664;2023-06-24T01:55:14;996.15;;;13.91;100.00
29815;BME280;16708;50.426;7.664;2023-06-24T02:00:08;996.16;;;13.87;100.00
29815;BME280;16708;50.426;7.664;2023-06-24T02:05:03;996.21;;;13.87;100.00
29815;BME280;16708;50.426;7.664;2023-06-24T02:09:57;996.21;;;13.92;100.00
29815;BME280;16708;50.426;7.664;2023-06-24T02:14:52;996.27;;;13.87;100.00
29815;BME280;16708;50.426;7.664;2023-06-24T02:19:46;996.24;;;13.82;100.00
29815;BME280;16708;50.426;7.664;2023-06-24T02:24:40;996.20;;;13.83;100.00
29815;BME280;16708;50.426;7.664;2023-06-24T02:29:35;996.17;;;13.67;100.00
29815;BME280;16708;50.426;7.664;2023-06-24T02:34:29;996.14;;;13.63;100.00
29815;BME280;16708;50.426;7.664;2023-06-24T02:39:23;996.17;;;13.54;100.00
29815;BME280;16708;50.426;7.664;2023-06-24T02:44:17;996.12;;;13.45;100.00
29815;BME280;16708;50.426;7.664;2023-06-24T02:49:11;996.12;;;13.48;100.00
29815;BME280;16708;50.426;7.664;2023-06-24T02:54:05;996.10;;;13.48;100.00
29815;BME280;16708;50.426;7.664;2023-06-24T02:58:59;996.23;;;13.45;100.00
29815;BME280;16708;50.426;7.664;2023-06-24T03:03:53;996.22;;;13.43;100.00
29815;BME280;16708;50.426;7.664;2023-06-24T03:08:49;996.20;;;13.43;100.00
29815;BME280;16708;50.426;7.664;2023-06-24T03:13:42;996.25;;;13.35;100.00
29815;BME280;16708;50.426;7.664;2023-06-24T03:18:36;996.27;;;13.32;100.00
29815;BME280;16708;50.426;7.664;2023-06-24T03:23:31;996.30;;;13.32;100.00
29815;BME280;16708;50.426;7.664;2023-06-24T03:28:25;996.27;;;13.41;100.00
29815;BME280;16708;50.426;7.664;2023-06-24T03:33:19;996.31;;;13.42;100.00
29815;BME280;16708;50.426;7.664;2023-06-24T03:38:13;996.38;;;13.43;100.00
29815;BME280;16708;50.426;7.664;2023-06-24T03:43:05;996.44;;;13.41;100.00
29815;BME280;16708;50.426;7.664;2023-06-24T03:47:59;996.40;;;13.44;100.00
29815;BME280;16708;50.426;7.664;2023-06-24T03:52:54;996.32;;;13.43;100.00
29815;BME280;16708;50.426;7.664;2023-06-24T03:57:47;996.32;;;13.52;100.00
29815;BME280;16708;50.426;7.664;2023-06-24T04:02:42;996.29;;;13.57;100.00
29815;BME280;16708;50.426;7.664;2023-06-24T04:07:35;996.33;;;13.68;100.00
29815;BME280;16708;50.426;7.664;2023-06-24T04:12:29;996.27;;;13.81;100.00
29815;BME280;16708;50.426;7.664;2023-06-24T04:17:23;996.37;;;13.93;100.00
29815;BME280;16708;50.426;7.664;2023-06-24T04:22:17;996.34;;;14.10;100.00
29815;BME280;16708;50.426;7.664;2023-06-24T04:27:12;996.36;;;14.28;100.00
29815;BME280;16708;50.426;7.664;2023-06-24T04:32:06;996.42;;;14.53;100.00
29815;BME280;16708;50.426;7.664;2023-06-24T04:37:01;996.44;;;14.80;100.00
29815;BME280;16708;50.426;7.664;2023-06-24T04:41:55;996.55;;;15.12;100.00
29815;BME280;16708;50.426;7.664;2023-06-24T04:46:50;996.46;;;15.36;100.00
29815;BME280;16708;50.426;7.664;2023-06-24T04:51:44;996.46;;;15.57;100.00
29815;BME280;16708;50.426;7.664;2023-06-24T04:56:39;996.45;;;15.83;100.00
29815;BME280;16708;50.426;7.664;2023-06-24T05:01:33;996.52;;;16.04;100.00
29815;BME280;16708;50.426;7.664;2023-06-24T05:06:27;996.49;;;16.25;100.00
29815;BME280;16708;50.426;7.664;2023-06-24T05:11:22;996.44;;;16.41;100.00
29815;BME280;16708;50.426;7.664;2023-06-24T05:16:16;996.49;;;16.70;100.00
29815;BME280;16708;50.426;7.664;2023-06-24T05:21:11;996.48;;;16.87;100.00
29815;BME280;16708;50.426;7.664;2023-06-24T05:26:05;996.47;;;17.09;100.00
29815;BME280;16708;50.426;7.664;2023-06-24T05:30:59;996.56;;;17.17;100.00
29815;BME280;16708;50.426;7.664;2023-06-24T05:35:54;996.70;;;17.18;100.00
29815;BME280;16708;50.426;7.664;2023-06-24T05:40:48;996.66;;;17.66;100.00
29815;BME280;16708;50.426;7.664;2023-06-24T05:45:41;996.64;;;17.37;100.00
29815;BME280;16708;50.426;7.664;2023-06-24T05:50:34;996.56;;;17.37;100.00
29815;BME280;16708;50.426;7.664;2023-06-24T05:55:28;996.61;;;17.47;100.00
29815;BME280;16708;50.426;7.664;2023-06-24T06:00:22;996.63;;;17.82;100.00
29815;BME280;16708;50.426;7.664;2023-06-24T06:05:16;996.55;;;18.01;100.00
29815;BME280;16708;50.426;7.664;2023-06-24T06:10:10;996.58;;;18.11;100.00
29815;BME280;16708;50.426;7.664;2023-06-24T06:15:05;996.62;;;18.29;100.00
29815;BME280;16708;50.426;7.664;2023-06-24T06:20:00;996.63;;;18.54;100.00
29815;BME280;16708;50.426;7.664;2023-06-24T06:24:54;996.64;;;18.80;100.00
29815;BME280;16708;50.426;7.664;2023-06-24T06:29:48;996.59;;;18.71;100.00
29815;BME280;16708;50.426;7.664;2023-06-24T06:34:40;996.46;;;18.90;100.00
29815;BME280;16708;50.426;7.664;2023-06-24T06:39:35;996.63;;;19.23;100.00
29815;BME280;16708;50.426;7.664;2023-06-24T06:44:29;996.66;;;19.09;100.00
29815;BME280;16708;50.426;7.664;2023-06-24T06:49:23;996.60;;;19.29;100.00
29815;BME280;16708;50.426;7.664;2023-06-24T06:54:16;996.58;;;19.69;100.00
29815;BME280;16708;50.426;7.664;2023-06-24T06:59:11;996.70;;;20.04;100.00
29815;BME280;16708;50.426;7.664;2023-06-24T07:04:05;996.67;;;20.25;100.00
29815;BME280;16708;50.426;7.664;2023-06-24T07:08:59;996.64;;;20.36;100.00
29815;BME280;16708;50.426;7.664;2023-06-24T07:13:54;996.69;;;20.18;100.00
29815;BME280;16708;50.426;7.664;2023-06-24T07:18:48;996.69;;;20.34;100.00
29815;BME280;16708;50.426;7.664;2023-06-24T07:23:42;996.59;;;20.39;100.00
29815;BME280;16708;50.426;7.664;2023-06-24T07:28:37;996.71;;;20.67;100.00
29815;BME280;16708;50.426;7.664;2023-06-24T07:33:31;996.62;;;20.81;100.00
29815;BME280;16708;50.426;7.664;2023-06-24T07:38:25;996.68;;;21.11;100.00
29815;BME280;16708;50.426;7.664;2023-06-24T07:43:20;996.72;;;21.32;100.00
29815;BME280;16708;50.426;7.664;2023-06-24T07:48:13;996.64;;;21.45;100.00
29815;BME280;16708;50.426;7.664;2023-06-24T07:53:06;996.76;;;21.42;100.00
29815;BME280;16708;50.426;7.664;2023-06-24T07:58:01;996.73;;;21.49;100.00
29815;BME280;16708;50.426;7.664;2023-06-24T08:02:55;996.67;;;21.63;100.00
29815;BME280;16708;50.426;7.664;2023-06-24T08:07:50;996.67;;;21.84;100.00
29815;BME280;16708;50.426;7.664;2023-06-24T08:12:42;996.72;;;22.26;100.00
29815;BME280;16708;50.426;7.664;2023-06-24T08:17:35;996.75;;;22.34;100.00
29815;BME280;16708;50.426;7.664;2023-06-24T08:22:29;996.71;;;22.26;100.00
29815;BME280;16708;50.426;7.664;2023-06-24T08:27:23;996.60;;;22.57;100.00
29815;BME280;16708;50.426;7.664;2023-06-24T08:32:17;996.60;;;22.59;100.00
29815;BME280;16708;50.426;7.664;2023-06-24T08:37:12;996.69;;;22.92;100.00
29815;BME280;16708;50.426;7.664;2023-06-24T08:42:06;996.62;;;22.91;100.00
29815;BME280;16708;50.426;7.664;2023-06-24T08:47:01;996.62;;;23.05;100.00
29815;BME280;16708;50.426;7.664;2023-06-24T08:51:55;996.65;;;23.10;100.00
29815;BME280;16708;50.426;7.664;2023-06-24T08:56:50;996.56;;;23.37;100.00
29815;BME280;16708;50.426;7.664;2023-06-24T09:01:43;996.58;;;23.69;100.00
29815;BME280;16708;50.426;7.664;2023-06-24T09:06:37;996.68;;;23.98;100.00
29815;BME280;16708;50.426;7.664;2023-06-24T09:11:30;996.64;;;24.12;98.35
29815;BME280;16708;50.426;7.664;2023-06-24T09:16:25;996.65;;;23.93;95.49
29815;BME280;16708;50.426;7.664;2023-06-24T09:21:19;996.53;;;24.24;90.51
29815;BME280;16708;50.426;7.664;2023-06-24T09:31:08;996.38;;;24.49;92.31
29815;BME280;16708;50.426;7.664;2023-06-24T09:36:02;996.36;;;24.40;81.67
29815;BME280;16708;50.426;7.664;2023-06-24T09:40:57;996.28;;;24.40;82.07
29815;BME280;16708;50.426;7.664;2023-06-24T09:45:51;996.32;;;25.22;78.84
29815;BME280;16708;50.426;7.664;2023-06-24T09:50:44;996.13;;;25.67;85.21
29815;BME280;16708;50.426;7.664;2023-06-24T09:55:39;996.05;;;26.10;74.70
29815;BME280;16708;50.426;7.664;2023-06-24T10:00:33;996.21;;;26.93;65.38
29815;BME280;16708;50.426;7.664;2023-06-24T10:05:28;996.14;;;28.33;55.62
29815;BME280;16708;50.426;7.664;2023-06-24T10:10:23;996.07;;;28.92;51.38
29815;BME280;16708;50.426;7.664;2023-06-24T10:15:19;996.00;;;30.15;42.69
29815;BME280;16708;50.426;7.664;2023-06-24T10:20:15;995.94;;;30.37;41.75
29815;BME280;16708;50.426;7.664;2023-06-24T10:25:10;995.90;;;30.07;40.69
29815;BME280;16708;50.426;7.664;2023-06-24T10:30:05;995.84;;;30.69;40.98
29815;BME280;16708;50.426;7.664;2023-06-24T10:35:00;995.81;;;31.90;40.07
29815;BME280;16708;50.426;7.664;2023-06-24T10:39:55;995.73;;;31.01;37.30
29815;BME280;16708;50.426;7.664;2023-06-24T10:49:43;995.74;;;29.38;39.87
29815;BME280;16708;50.426;7.664;2023-06-24T10:54:38;995.70;;;30.08;36.23
29815;BME280;16708;50.426;7.664;2023-06-24T10:59:32;995.63;;;31.75;36.66
29815;BME280;16708;50.426;7.664;2023-06-24T11:04:27;995.57;;;31.81;32.71
29815;BME280;16708;50.426;7.664;2023-06-24T11:09:21;995.54;;;32.85;33.53
29815;BME280;16708;50.426;7.664;2023-06-24T11:14:15;995.48;;;33.02;33.28
29815;BME280;16708;50.426;7.664;2023-06-24T11:19:10;995.44;;;33.59;31.90
29815;BME280;16708;50.426;7.664;2023-06-24T11:24:05;995.38;;;33.06;31.50
29815;BME280;16708;50.426;7.664;2023-06-24T11:28:59;995.39;;;32.70;32.64
29815;BME280;16708;50.426;7.664;2023-06-24T11:33:54;995.34;;;34.40;30.29
29815;BME280;16708;50.426;7.664;2023-06-24T11:38:48;995.29;;;34.30;29.78
29815;BME280;16708;50.426;7.664;2023-06-24T11:43:42;995.29;;;32.41;30.83
29815;BME280;16708;50.426;7.664;2023-06-24T11:48:37;995.21;;;32.59;30.11
29815;BME280;16708;50.426;7.664;2023-06-24T11:53:31;995.11;;;33.81;29.78
29815;BME280;16708;50.426;7.664;2023-06-24T12:03:20;995.03;;;31.92;31.73
29815;BME280;16708;50.426;7.664;2023-06-24T12:08:14;994.88;;;33.09;29.31
29815;BME280;16708;50.426;7.664;2023-06-24T12:13:06;994.88;;;32.52;32.13
29815;BME280;16708;50.426;7.664;2023-06-24T12:18:00;994.80;;;33.02;30.77
29815;BME280;16708;50.426;7.664;2023-06-24T12:22:54;994.71;;;33.05;31.85
29815;BME280;16708;50.426;7.664;2023-06-24T12:27:49;994.73;;;33.38;31.27
29815;BME280;16708;50.426;7.664;2023-06-24T12:32:43;994.66;;;34.03;29.46
29815;BME280;16708;50.426;7.664;2023-06-24T12:37:37;994.68;;;34.83;29.60
29815;BME280;16708;50.426;7.664;2023-06-24T12:42:32;994.58;;;37.04;26.59
29815;BME280;16708;50.426;7.664;2023-06-24T12:47:26;994.53;;;34.12;28.81
29815;BME280;16708;50.426;7.664;2023-06-24T12:52:21;994.56;;;33.09;29.95
29815;BME280;16708;50.426;7.664;2023-06-24T12:57:14;994.50;;;33.17;30.45
29815;BME280;16708;50.426;7.664;2023-06-24T13:02:09;994.44;;;34.11;28.79
29815;BME280;16708;50.426;7.664;2023-06-24T13:07:04;994.51;;;35.29;28.20
29815;BME280;16708;50.426;7.664;2023-06-24T13:11:59;994.45;;;34.95;27.30
29815;BME280;16708;50.426;7.664;2023-06-24T13:16:54;994.38;;;35.25;27.02
29815;BME280;16708;50.426;7.664;2023-06-24T13:21:48;994.34;;;34.57;26.81
29815;BME280;16708;50.426;7.664;2023-06-24T13:26:44;994.35;;;37.02;25.16
29815;BME280;16708;50.426;7.664;2023-06-24T13:31:38;994.39;;;36.64;24.32
29815;BME280;16708;50.426;7.664;2023-06-24T13:36:32;994.26;;;35.22;26.07
29815;BME280;16708;50.426;7.664;2023-06-24T13:41:26;994.32;;;34.91;27.90
29815;BME280;16708;50.426;7.664;2023-06-24T13:46:21;994.22;;;35.70;26.54
29815;BME280;16708;50.426;7.664;2023-06-24T13:51:15;994.14;;;34.53;27.79
29815;BME280;16708;50.426;7.664;2023-06-24T13:56:10;994.14;;;37.41;26.05
29815;BME280;16708;50.426;7.664;2023-06-24T14:01:04;994.15;;;36.14;26.71
29815;BME280;16708;50.426;7.664;2023-06-24T14:05:58;994.11;;;35.41;26.75
29815;BME280;16708;50.426;7.664;2023-06-24T14:10:52;994.03;;;35.98;25.86
29815;BME280;16708;50.426;7.664;2023-06-24T14:15:47;994.06;;;36.32;23.94
29815;BME280;16708;50.426;7.664;2023-06-24T14:20:39;993.95;;;37.05;22.36
29815;BME280;16708;50.426;7.664;2023-06-24T14:25:34;993.85;;;36.71;25.21
29815;BME280;16708;50.426;7.664;2023-06-24T14:30:28;993.89;;;37.20;24.21
29815;BME280;16708;50.426;7.664;2023-06-24T14:35:23;993.82;;;39.05;23.24
29815;BME280;16708;50.426;7.664;2023-06-24T14:40:17;993.73;;;35.58;25.23
29815;BME280;16708;50.426;7.664;2023-06-24T14:45:11;993.72;;;35.94;25.57
29815;BME280;16708;50.426;7.664;2023-06-24T14:50:06;993.70;;;38.20;24.25
29815;BME280;16708;50.426;7.664;2023-06-24T14:55:01;993.73;;;37.96;22.16
29815;BME280;16708;50.426;7.664;2023-06-24T14:59:55;993.64;;;37.52;22.49
29815;BME280;16708;50.426;7.664;2023-06-24T15:04:49;993.53;;;34.95;25.59
29815;BME280;16708;50.426;7.664;2023-06-24T15:09:42;993.60;;;37.62;23.67
29815;BME280;16708;50.426;7.664;2023-06-24T15:14:37;993.52;;;39.32;22.17
29815;BME280;16708;50.426;7.664;2023-06-24T15:19:32;993.49;;;38.19;21.59
29815;BME280;16708;50.426;7.664;2023-06-24T15:24:26;993.47;;;37.41;24.77
29815;BME280;16708;50.426;7.664;2023-06-24T15:29:20;993.41;;;38.15;23.00
29815;BME280;16708;50.426;7.664;2023-06-24T15:34:15;993.41;;;37.35;24.02
29815;BME280;16708;50.426;7.664;2023-06-24T15:39:09;993.38;;;38.35;22.03
29815;BME280;16708;50.426;7.664;2023-06-24T15:44:03;993.27;;;35.48;25.09
29815;BME280;16708;50.426;7.664;2023-06-24T15:48:58;993.21;;;36.70;23.44
29815;BME280;16708;50.426;7.664;2023-06-24T15:53:50;993.22;;;37.26;23.43
29815;BME280;16708;50.426;7.664;2023-06-24T15:58:45;993.27;;;37.28;24.91
29815;BME280;16708;50.426;7.664;2023-06-24T16:03:39;993.09;;;36.36;26.71
29815;BME280;16708;50.426;7.664;2023-06-24T16:08:33;992.96;;;35.11;28.62
29815;BME280;16708;50.426;7.664;2023-06-24T16:13:27;992.91;;;32.16;32.80
29815;BME280;16708;50.426;7.664;2023-06-24T16:18:19;992.97;;;33.31;31.87
29815;BME280;16708;50.426;7.664;2023-06-24T16:23:13;992.92;;;31.85;35.05
29815;BME280;16708;50.426;7.664;2023-06-24T16:28:06;992.85;;;30.41;38.60
29815;BME280;16708;50.426;7.664;2023-06-24T16:32:59;992.85;;;30.23;39.93
29815;BME280;16708;50.426;7.664;2023-06-24T16:37:52;992.91;;;30.38;42.90
29815;BME280;16708;50.426;7.664;2023-06-24T16:42:46;992.78;;;30.07;46.08
29815;BME280;16708;50.426;7.664;2023-06-24T16:47:40;992.86;;;30.25;48.23
29815;BME280;16708;50.426;7.664;2023-06-24T16:52:34;992.91;;;32.08;38.86
29815;BME280;16708;50.426;7.664;2023-06-24T16:57:29;992.92;;;34.46;36.06
29815;BME280;16708;50.426;7.664;2023-06-24T17:02:24;992.95;;;35.59;32.11
29815;BME280;16708;50.426;7.664;2023-06-24T17:07:20;992.84;;;32.21;37.16
29815;BME280;16708;50.426;7.664;2023-06-24T17:12:14;992.83;;;31.59;39.05
29815;BME280;16708;50.426;7.664;2023-06-24T17:17:07;992.83;;;29.66;46.76
29815;BME280;16708;50.426;7.664;2023-06-24T17:22:01;992.71;;;28.71;52.90
29815;BME280;16708;50.426;7.664;2023-06-24T17:26:55;992.85;;;30.15;46.86
29815;BME280;16708;50.426;7.664;2023-06-24T17:31:49;992.88;;;30.68;42.67
29815;BME280;16708;50.426;7.664;2023-06-24T17:36:44;992.82;;;29.50;48.51
29815;BME280;16708;50.426;7.664;2023-06-24T17:41:38;992.73;;;28.96;51.05
29815;BME280;16708;50.426;7.664;2023-06-24T17:46:32;992.82;;;31.47;39.06
29815;BME280;16708;50.426;7.664;2023-06-24T17:51:26;992.72;;;32.14;35.02
29815;BME280;16708;50.426;7.664;2023-06-24T17:56:21;992.75;;;33.96;32.12
29815;BME280;16708;50.426;7.664;2023-06-24T18:01:15;992.69;;;33.82;32.42
29815;BME280;16708;50.426;7.664;2023-06-24T18:06:10;992.62;;;32.76;33.34
29815;BME280;16708;50.426;7.664;2023-06-24T18:11:04;992.69;;;31.79;35.96
29815;BME280;16708;50.426;7.664;2023-06-24T18:15:56;992.60;;;31.12;39.02
29815;BME280;16708;50.426;7.664;2023-06-24T18:20:50;992.52;;;32.63;35.24
29815;BME280;16708;50.426;7.664;2023-06-24T18:25:45;992.45;;;32.82;36.24
29815;BME280;16708;50.426;7.664;2023-06-24T18:30:39;992.49;;;31.72;39.31
29815;BME280;16708;50.426;7.664;2023-06-24T18:35:33;992.56;;;30.32;43.00
29815;BME280;16708;50.426;7.664;2023-06-24T18:40:27;992.50;;;29.59;47.19
29815;BME280;16708;50.426;7.664;2023-06-24T18:45:21;992.41;;;29.23;49.51
29815;BME280;16708;50.426;7.664;2023-06-24T18:50:15;992.45;;;28.90;52.38
29815;BME280;16708;50.426;7.664;2023-06-24T18:55:09;992.43;;;27.92;59.65
29815;BME280;16708;50.426;7.664;2023-06-24T19:00:03;992.40;;;27.06;70.26
29815;BME280;16708;50.426;7.664;2023-06-24T19:04:57;992.34;;;26.65;74.82
29815;BME280;16708;50.426;7.664;2023-06-24T19:09:51;992.34;;;25.99;82.16
29815;BME280;16708;50.426;7.664;2023-06-24T19:14:44;992.34;;;25.51;84.21
29815;BME280;16708;50.426;7.664;2023-06-24T19:19:39;992.28;;;25.21;88.14
29815;BME280;16708;50.426;7.664;2023-06-24T19:24:32;992.29;;;25.02;90.71
29815;BME280;16708;50.426;7.664;2023-06-24T19:29:26;992.25;;;24.81;97.30
29815;BME280;16708;50.426;7.664;2023-06-24T19:34:20;992.25;;;24.55;100.00
29815;BME280;16708;50.426;7.664;2023-06-24T19:39:14;992.21;;;24.20;100.00
29815;BME280;16708;50.426;7.664;2023-06-24T19:44:08;992.30;;;23.89;100.00
29815;BME280;16708;50.426;7.664;2023-06-24T19:49:03;992.32;;;23.58;100.00
29815;BME280;16708;50.426;7.664;2023-06-24T19:53:56;992.29;;;23.42;100.00
29815;BME280;16708;50.426;7.664;2023-06-24T19:58:51;992.44;;;23.07;100.00
29815;BME280;16708;50.426;7.664;2023-06-24T20:03:45;992.40;;;22.71;100.00
29815;BME280;16708;50.426;7.664;2023-06-24T20:08:39;992.44;;;22.33;100.00
29815;BME280;16708;50.426;7.664;2023-06-24T20:13:33;992.39;;;22.07;100.00
29815;BME280;16708;50.426;7.664;2023-06-24T20:18:27;992.34;;;21.80;100.00
29815;BME280;16708;50.426;7.664;2023-06-24T20:23:21;992.39;;;21.83;100.00
29815;BME280;16708;50.426;7.664;2023-06-24T20:28:15;992.39;;;21.71;100.00
29815;BME280;16708;50.426;7.664;2023-06-24T20:33:10;992.29;;;21.57;100.00
29815;BME280;16708;50.426;7.664;2023-06-24T20:38:04;992.40;;;21.49;100.00
29815;BME280;16708;50.426;7.664;2023-06-24T20:42:58;992.33;;;21.46;100.00
29815;BME280;16708;50.426;7.664;2023-06-24T20:47:52;992.33;;;21.11;100.00
29815;BME280;16708;50.426;7.664;2023-06-24T20:52:46;992.30;;;20.73;100.00
29815;BME280;16708;50.426;7.664;2023-06-24T20:57:40;992.29;;;20.87;100.00
29815;BME280;16708;50.426;7.664;2023-06-24T21:02:34;992.22;;;20.91;100.00
29815;BME280;16708;50.426;7.664;2023-06-24T21:07:29;992.28;;;20.70;100.00
29815;BME280;16708;50.426;7.664;2023-06-24T21:12:21;992.24;;;20.52;100.00
29815;BME280;16708;50.426;7.664;2023-06-24T21:17:15;992.24;;;20.49;100.00
29815;BME280;16708;50.426;7.664;2023-06-24T21:22:09;992.23;;;20.47;100.00
29815;BME280;16708;50.426;7.664;2023-06-24T21:27:04;992.22;;;20.30;100.00
29815;BME280;16708;50.426;7.664;2023-06-24T21:31:58;992.21;;;20.18;100.00
29815;BME280;16708;50.426;7.664;2023-06-24T21:36:52;992.14;;;20.05;100.00
29815;BME280;16708;50.426;7.664;2023-06-24T21:41:46;992.22;;;20.02;100.00
29815;BME280;16708;50.426;7.664;2023-06-24T21:46:40;992.16;;;19.99;100.00
29815;BME280;16708;50.426;7.664;2023-06-24T21:51:35;992.23;;;19.66;100.00
29815;BME280;16708;50.426;7.664;2023-06-24T21:56:29;992.19;;;19.51;100.00
29815;BME280;16708;50.426;7.664;2023-06-24T22:01:20;992.16;;;19.44;100.00
29815;BME280;16708;50.426;7.664;2023-06-24T22:06:13;992.13;;;19.29;100.00
29815;BME280;16708;50.426;7.664;2023-06-24T22:11:07;992.12;;;19.19;100.00
29815;BME280;16708;50.426;7.664;2023-06-24T22:16:02;992.02;;;19.13;100.00
29815;BME280;16708;50.426;7.664;2023-06-24T22:20:56;992.04;;;18.96;100.00
29815;BME280;16708;50.426;7.664;2023-06-24T22:25:50;991.96;;;19.01;100.00
29815;BME280;16708;50.426;7.664;2023-06-24T22:30:45;992.03;;;18.93;100.00
29815;BME280;16708;50.426;7.664;2023-06-24T22:35:39;992.07;;;18.78;100.00
29815;BME280;16708;50.426;7.664;2023-06-24T22:40:33;992.06;;;18.72;100.00
29815;BME280;16708;50.426;7.664;2023-06-24T22:45:26;992.13;;;18.59;100.00
29815;BME280;16708;50.426;7.664;2023-06-24T22:50:21;992.11;;;18.54;100.00
29815;BME280;16708;50.426;7.664;2023-06-24T22:55:14;992.10;;;18.44;100.00
29815;BME280;16708;50.426;7.664;2023-06-24T23:00:08;992.05;;;18.30;100.00
29815;BME280;16708;50.426;7.664;2023-06-24T23:05:02;992.10;;;18.16;100.00
29815;BME280;16708;50.426;7.664;2023-06-24T23:09:56;992.11;;;18.05;100.00
29815;BME280;16708;50.426;7.664;2023-06-24T23:14:50;992.15;;;18.00;100.00
29815;BME280;16708;50.426;7.664;2023-06-24T23:19:44;992.11;;;18.01;100.00
29815;BME280;16708;50.426;7.664;2023-06-24T23:24:38;992.11;;;17.82;100.00
29815;BME280;16708;50.426;7.664;2023-06-24T23:29:32;992.09;;;17.89;100.00
29815;BME280;16708;50.426;7.664;2023-06-24T23:34:27;992.07;;;17.96;100.00
29815;BME280;16708;50.426;7.664;2023-06-24T23:39:21;992.07;;;17.81;100.00
29815;BME280;16708;50.426;7.664;2023-06-24T23:44:15;992.04;;;17.81;100.00
29815;BME280;16708;50.426;7.664;2023-06-24T23:49:10;991.98;;;17.76;100.00
29815;BME280;16708;50.426;7.664;2023-06-24T23:54:04;992.01;;;17.76;100.00
29815;BME280;16708;50.426;7.664;2023-06-24T23:58:58;991.88;;;17.73;100.00
